createdAt,value
2023-03-26T00:04:35.832Z,99999.69
2023-03-26T00:09:58.126Z,100008.22
2023-03-26T00:15:19.058Z,100013.34
2023-03-26T00:20:41.556Z,100007.44
2023-03-26T00:26:03.438Z,100028.75
2023-03-26T00:31:24.222Z,100037.28
2023-03-26T00:36:46.948Z,100027.97
2023-03-26T00:42:08.258Z,100043.28
2023-03-26T00:47:29.358Z,100033.94
2023-03-26T00:52:50.635Z,100045.13
2023-03-26T00:58:12.836Z,100048.63
2023-03-26T01:03:35.653Z,100061.38
2023-03-26T01:09:00.529Z,100075.88
2023-03-26T01:14:24.346Z,100070.06
2023-03-26T01:19:56.223Z,100083.75
2023-03-26T01:25:17.218Z,100096.53
2023-03-26T01:30:43.665Z,100103.44
2023-03-26T01:36:17.037Z,100117.03
2023-03-26T01:42:19.442Z,100105.22
2023-03-26T01:47:42.234Z,100117.22
2023-03-26T02:01:31.076Z,100121.69
2023-03-26T02:07:02.503Z,100124.28
2023-03-26T02:12:24.676Z,100125.81
2023-03-26T02:17:45.596Z,100138.50
2023-03-26T02:23:06.867Z,100119.06
2023-03-26T02:28:27.828Z,100128.47
2023-03-26T02:33:49.588Z,100133.50
2023-03-26T02:39:11.960Z,100116.59
2023-03-26T02:44:33.311Z,100131.78
2023-03-26T02:50:14.760Z,100134.38
2023-03-26T02:56:02.018Z,100132.59
2023-03-26T03:01:35.212Z,100142.78
2023-03-26T03:06:57.664Z,100137.78
2023-03-26T03:12:19.546Z,100150.47
2023-03-26T03:17:40.700Z,100146.25
2023-03-26T03:23:01.782Z,100150.50
2023-03-26T03:28:25.396Z,100138.69
2023-03-26T03:33:46.513Z,100150.44
2023-03-26T03:39:09.471Z,100140.22
2023-03-26T03:44:31.076Z,100154.59
2023-03-26T03:49:53.682Z,100141.00
2023-03-26T03:55:15.228Z,100146.97
2023-03-26T04:00:41.832Z,100155.41
2023-03-26T04:06:21.339Z,100167.31
2023-03-26T04:11:46.063Z,100150.25
2023-03-26T04:17:23.587Z,100161.38
2023-03-26T04:22:48.079Z,100163.13
2023-03-26T04:28:22.273Z,100156.34
2023-03-26T04:33:55.296Z,100163.16
2023-03-26T04:39:16.490Z,100156.41
2023-03-26T04:45:03.110Z,100152.06
2023-03-26T04:50:26.570Z,100146.22
2023-03-26T04:56:14.093Z,100140.34
2023-03-26T05:02:00.036Z,100165.75
2023-03-26T05:07:24.172Z,100150.47
2023-03-26T05:12:53.590Z,100146.25
2023-03-26T05:18:18.758Z,100151.41
2023-03-26T05:23:43.937Z,100142.94
2023-03-26T05:29:17.853Z,100148.09
2023-03-26T05:34:42.463Z,100141.38
2023-03-26T05:40:04.233Z,100153.22
2023-03-26T05:45:37.270Z,100149.81
2023-03-26T05:51:15.730Z,100162.56
2023-03-26T05:56:44.495Z,100164.22
2023-03-26T06:02:23.886Z,100165.03
2023-03-26T06:08:04.124Z,100159.91
2023-03-26T06:13:30.558Z,100157.13
2023-03-26T06:18:56.754Z,100170.69
2023-03-26T06:24:26.819Z,100172.47
2023-03-26T06:30:03.151Z,100170.78
2023-03-26T06:35:43.164Z,100184.91
2023-03-26T06:41:06.238Z,100182.16
2023-03-26T06:46:45.529Z,100172.75
2023-03-26T06:52:38.650Z,100192.16
2023-03-26T06:58:25.029Z,100206.69
2023-03-26T07:04:08.655Z,100198.91
2023-03-26T07:09:49.982Z,100200.09
2023-03-26T07:15:37.927Z,100205.69
2023-03-26T07:21:33.992Z,100214.94
2023-03-26T07:27:17.468Z,100206.50
2023-03-26T07:33:24.493Z,100221.34
2023-03-26T07:39:15.483Z,100216.59
2023-03-26T07:45:19.509Z,100233.59
2023-03-26T07:51:13.669Z,100232.06
2023-03-26T07:56:59.703Z,100241.22
2023-03-26T08:03:06.860Z,100231.81
2023-03-26T08:09:17.598Z,100236.38
2023-03-26T08:15:12.779Z,100227.38
2023-03-26T08:20:51.736Z,100231.03
2023-03-26T08:26:41.452Z,100230.78
2023-03-26T08:32:04.657Z,100235.53
2023-03-26T08:37:26.518Z,100255.84
2023-03-26T08:43:16.978Z,100257.34
2023-03-26T08:48:47.122Z,100247.16
2023-03-26T08:54:26.991Z,100252.09
2023-03-26T09:00:03.031Z,100272.88
2023-03-26T09:05:43.486Z,100268.31
2023-03-26T09:11:07.346Z,100271.00
2023-03-26T09:16:34.393Z,100250.38
2023-03-26T09:22:23.306Z,100256.53
2023-03-26T09:28:16.297Z,100268.97
2023-03-26T09:34:13.968Z,100275.28
2023-03-26T09:39:58.852Z,100275.81
2023-03-26T09:45:39.822Z,100283.22
2023-03-26T09:51:14.078Z,100295.78
2023-03-26T09:57:25.795Z,100303.75
2023-03-26T10:03:14.999Z,100291.78
2023-03-26T10:09:08.772Z,100290.13
2023-03-26T10:14:53.432Z,100301.44
2023-03-26T10:20:44.122Z,100302.69
2023-03-26T10:26:29.485Z,100301.94
2023-03-26T10:32:06.581Z,100291.13
2023-03-26T10:37:49.093Z,100308.38
2023-03-26T10:44:07.836Z,100304.41
2023-03-26T10:50:07.231Z,100316.41
2023-03-26T10:55:47.321Z,100313.59
2023-03-26T11:01:36.572Z,100334.75
2023-03-26T11:07:17.667Z,100351.19
2023-03-26T11:12:57.323Z,100350.94
2023-03-26T11:18:28.582Z,100352.84
2023-03-26T11:24:12.982Z,100360.47
2023-03-26T11:30:03.393Z,100352.81
2023-03-26T11:35:40.399Z,100379.00
2023-03-26T11:41:11.271Z,100371.22
2023-03-26T11:47:10.284Z,100389.84
2023-03-26T11:52:33.582Z,100385.78
2023-03-26T11:57:57.966Z,100386.41
2023-03-26T12:03:20.861Z,100385.38
2023-03-26T12:08:41.480Z,100402.59
2023-03-26T12:14:07.949Z,100405.41
2023-03-26T12:19:35.618Z,100405.44
2023-03-26T12:25:16.135Z,100398.09
2023-03-26T12:30:39.510Z,100402.22
2023-03-26T12:36:17.496Z,100411.44
2023-03-26T12:42:25.787Z,100409.84
2023-03-26T12:48:01.747Z,100413.56
2023-03-26T12:53:20.441Z,100430.97
2023-03-26T12:59:06.344Z,100417.97
2023-03-26T13:05:02.234Z,100449.25
2023-03-26T13:10:49.489Z,100440.56
2023-03-26T13:16:15.480Z,100449.78
2023-03-26T13:21:51.177Z,100429.53
2023-03-26T13:27:51.059Z,100439.72
2023-03-26T13:33:39.609Z,100443.97
2023-03-26T13:39:20.933Z,100433.19
2023-03-26T13:45:05.274Z,100450.78
2023-03-26T13:51:08.757Z,100447.06
2023-03-26T13:56:40.833Z,100446.16
2023-03-26T14:02:15.039Z,100442.88
2023-03-26T14:08:04.278Z,100455.78
2023-03-26T14:13:56.590Z,100462.34
2023-03-26T14:19:49.953Z,100466.28
2023-03-26T14:25:16.958Z,100467.34
2023-03-26T14:30:43.129Z,100470.84
2023-03-26T14:36:22.559Z,100469.75
2023-03-26T14:42:12.389Z,100484.34
2023-03-26T14:47:42.563Z,100463.81
2023-03-26T14:53:13.195Z,100471.22
2023-03-26T14:59:11.121Z,100471.75
2023-03-26T15:05:09.645Z,100462.66
2023-03-26T15:10:49.552Z,100482.56
2023-03-26T15:16:47.688Z,100480.03
2023-03-26T15:22:29.925Z,100484.69
2023-03-26T15:28:28.280Z,100486.50
2023-03-26T15:34:00.928Z,100473.66
2023-03-26T15:39:44.202Z,100480.06
2023-03-26T15:45:32.918Z,100503.31
2023-03-26T15:51:08.843Z,100510.34
2023-03-26T15:56:48.930Z,100508.66
2023-03-26T16:02:29.951Z,100508.16
2023-03-26T16:08:14.713Z,100514.94
2023-03-26T16:13:49.207Z,100520.03
2023-03-26T16:19:19.369Z,100531.03
2023-03-26T16:24:46.481Z,100525.94
2023-03-26T16:30:15.522Z,100540.88
2023-03-26T16:36:25.855Z,100528.38
2023-03-26T16:42:05.695Z,100553.72
2023-03-26T16:47:37.496Z,100567.81
2023-03-26T16:53:15.620Z,100557.00
2023-03-26T16:59:00.337Z,100581.22
2023-03-26T17:04:27.607Z,100591.88
2023-03-26T17:10:15.863Z,100583.13
2023-03-26T17:16:09.294Z,100597.44
2023-03-26T17:22:02.243Z,100612.50
2023-03-26T17:27:50.138Z,100612.91
2023-03-26T17:33:27.733Z,100630.34
2023-03-26T17:38:48.476Z,100624.63
2023-03-26T17:44:37.296Z,100633.50
2023-03-26T17:50:02.825Z,100643.97
2023-03-26T17:55:34.080Z,100650.88
2023-03-26T18:01:22.785Z,100655.13
2023-03-26T18:06:55.404Z,100667.06
2023-03-26T18:12:41.226Z,100678.09
2023-03-26T18:18:18.321Z,100677.25
2023-03-26T18:23:44.415Z,100693.41
2023-03-26T18:29:25.169Z,100707.03
2023-03-26T18:34:50.046Z,100707.94
2023-03-26T18:40:19.236Z,100718.13
2023-03-26T18:45:41.218Z,100720.69
2023-03-26T18:51:07.188Z,100715.59
2023-03-26T18:56:31.819Z,100724.97
2023-03-26T19:01:52.857Z,100728.31
2023-03-26T19:07:18.659Z,100743.63
2023-03-26T19:12:39.628Z,100741.06
2023-03-26T19:25:39.794Z,100744.47
2023-03-26T19:31:19.297Z,100749.56
2023-03-26T19:37:01.068Z,100756.34
2023-03-26T19:42:26.550Z,100752.09
2023-03-26T19:48:00.094Z,100751.25
2023-03-26T19:53:33.616Z,100761.44
2023-03-26T19:58:55.308Z,100763.16
2023-03-26T20:04:16.173Z,100758.03
2023-03-26T20:09:36.607Z,100766.53
2023-03-26T20:14:57.595Z,100762.28
2023-03-26T20:20:19.330Z,100752.97
2023-03-26T20:25:49.377Z,100763.97
2023-03-26T20:31:16.812Z,100738.53
2023-03-26T20:36:38.450Z,100781.78
2023-03-26T20:41:59.233Z,100775.00
2023-03-26T20:47:20.052Z,100777.50
2023-03-26T20:52:43.834Z,100781.75
2023-03-26T20:58:04.576Z,100783.38
2023-03-26T21:03:25.411Z,100786.75
2023-03-26T21:08:46.149Z,100793.47
2023-03-26T21:14:22.989Z,100779.03
2023-03-26T21:19:43.935Z,100790.78
2023-03-26T21:25:39.404Z,100789.94
2023-03-26T21:31:00.044Z,100799.22
2023-03-26T21:36:21.160Z,100783.97
2023-03-26T21:41:47.638Z,100801.75
2023-03-26T21:47:09.911Z,100799.19
2023-03-26T21:52:31.832Z,100801.69
2023-03-26T21:58:31.473Z,100810.13
2023-03-26T22:03:57.562Z,100816.88
2023-03-26T22:09:20.699Z,100808.47
2023-03-26T22:14:47.383Z,100811.00
2023-03-26T22:20:16.858Z,100814.34
2023-03-26T22:25:37.093Z,100810.13
2023-03-26T22:30:58.313Z,100819.41
2023-03-26T22:36:23.459Z,100818.53
2023-03-26T22:41:46.608Z,100816.00
2023-03-26T22:47:08.229Z,100821.06
2023-03-26T22:52:29.986Z,100836.34
2023-03-26T22:57:52.175Z,100851.63
2023-03-26T23:03:15.254Z,100857.59
2023-03-26T23:08:37.853Z,100865.31
2023-03-26T23:13:58.366Z,100869.56
2023-03-26T23:19:19.462Z,100871.25
2023-03-26T23:24:40.216Z,100868.72
2023-03-26T23:30:01.358Z,100877.22
2023-03-26T23:35:22.083Z,100876.41
2023-03-26T23:40:44.211Z,100884.81
2023-03-26T23:46:17.972Z,100877.19
2023-03-26T23:51:38.523Z,100887.38
2023-03-26T23:56:59.389Z,100896.66
